Time;durP1;ratioP1;P1;durP2;ratioP2;P2;SDS_P1;SDS_P2;PMS_P1;PMS_P2;Temp;Humidity;BMP_temperature;BMP_pressure;BME280_temperature;BME280_humidity;BME280_pressure;Samples;Min_cycle;Max_cycle;Signal;HPM_P1;HPM_P2
2021/10/24 00:01:03;;;;;;;27.60;17.30;;;9.10;99.90;;;;;;5068806;28;20040;-84
2021/10/24 00:03:30;;;;;;;29.15;16.80;;;9.10;99.90;;;;;;5062584;28;20062;-83
2021/10/24 00:05:56;;;;;;;23.08;15.68;;;9.10;99.90;;;;;;5051199;28;20037;-84
2021/10/24 00:08:22;;;;;;;30.67;15.50;;;9.00;99.90;;;;;;5039212;28;20115;-84
2021/10/24 00:10:48;;;;;;;26.20;16.10;;;8.90;99.90;;;;;;5028276;28;20537;-84
2021/10/24 00:13:14;;;;;;;22.55;15.90;;;8.90;99.90;;;;;;5032019;28;20067;-84
2021/10/24 00:15:40;;;;;;;26.30;16.58;;;8.90;99.90;;;;;;5017464;28;20121;-84
2021/10/24 00:18:05;;;;;;;22.20;15.90;;;8.80;99.90;;;;;;5028945;28;20047;-84
2021/10/24 00:20:32;;;;;;;29.23;16.30;;;8.80;99.90;;;;;;5029623;28;20037;-84
2021/10/24 00:22:59;;;;;;;29.92;18.05;;;8.70;99.90;;;;;;5068372;28;20786;-85
2021/10/24 00:25:25;;;;;;;28.05;17.65;;;8.70;99.90;;;;;;5032787;28;20032;-85
2021/10/24 00:27:51;;;;;;;30.17;17.52;;;8.60;99.90;;;;;;5039922;28;20111;-83
2021/10/24 00:30:17;;;;;;;27.45;17.58;;;8.60;99.90;;;;;;5041279;28;20120;-84
2021/10/24 00:32:42;;;;;;;29.20;17.13;;;8.60;99.90;;;;;;5031711;28;20052;-84
2021/10/24 00:35:08;;;;;;;31.60;16.70;;;8.60;99.90;;;;;;5048278;28;20044;-85
2021/10/24 00:37:34;;;;;;;27.65;17.48;;;8.50;99.90;;;;;;5061137;28;20128;-84
2021/10/24 00:39:59;;;;;;;29.73;16.92;;;8.50;99.90;;;;;;5044526;28;20040;-83
2021/10/24 00:42:25;;;;;;;28.35;16.75;;;8.50;99.90;;;;;;5026012;28;20072;-84
2021/10/24 00:44:51;;;;;;;31.45;17.15;;;8.50;99.90;;;;;;5028287;28;20497;-84
2021/10/24 00:47:16;;;;;;;29.77;15.75;;;8.40;99.90;;;;;;5029426;28;20044;-85
2021/10/24 00:49:42;;;;;;;30.00;16.48;;;8.50;99.90;;;;;;5069003;28;20458;-84
2021/10/24 00:52:10;;;;;;;30.85;16.92;;;8.40;99.90;;;;;;5044837;28;20032;-83
2021/10/24 00:54:37;;;;;;;28.58;17.60;;;8.40;99.90;;;;;;5060673;28;20037;-85
2021/10/24 00:57:03;;;;;;;30.85;17.55;;;8.40;99.90;;;;;;5050380;28;20044;-85
2021/10/24 00:59:30;;;;;;;29.50;17.80;;;8.40;99.90;;;;;;5043871;28;20036;-84
2021/10/24 01:01:55;;;;;;;29.42;17.20;;;8.40;99.90;;;;;;5064881;28;20396;-84
2021/10/24 01:04:22;;;;;;;30.88;17.55;;;8.30;99.90;;;;;;5026690;28;20036;-83
2021/10/24 01:06:51;;;;;;;28.35;17.48;;;8.30;99.90;;;;;;5049889;28;20484;-84
2021/10/24 01:09:21;;;;;;;32.03;16.58;;;8.20;99.90;;;;;;5052315;28;20086;-85
2021/10/24 01:11:49;;;;;;;30.38;16.90;;;8.20;99.90;;;;;;5052709;28;20037;-85
2021/10/24 01:14:15;;;;;;;29.65;16.45;;;8.20;99.90;;;;;;5030868;28;20072;-84
2021/10/24 01:16:42;;;;;;;25.20;16.00;;;8.20;99.90;;;;;;5034244;28;20055;-84
2021/10/24 01:19:11;;;;;;;29.65;16.38;;;8.20;99.90;;;;;;5049597;28;20356;-85
2021/10/24 01:21:37;;;;;;;30.05;17.13;;;8.20;99.90;;;;;;5051277;28;20119;-83
2021/10/24 01:24:04;;;;;;;28.02;15.57;;;8.10;99.90;;;;;;5065525;28;20480;-83
2021/10/24 01:26:33;;;;;;;34.60;17.20;;;8.10;99.90;;;;;;5032244;28;20079;-85
2021/10/24 01:28:58;;;;;;;24.27;14.93;;;8.10;99.90;;;;;;5079900;28;20133;-85
2021/10/24 01:31:24;;;;;;;29.27;16.05;;;8.00;99.90;;;;;;5029722;28;20133;-84
2021/10/24 01:33:50;;;;;;;36.08;17.65;;;8.00;99.90;;;;;;5065444;28;20049;-84
2021/10/24 01:36:15;;;;;;;25.13;15.23;;;7.90;99.90;;;;;;5035260;28;20040;-85
2021/10/24 01:38:49;;;;;;;27.42;14.95;;;7.90;99.90;;;;;;5047345;28;20398;-84
2021/10/24 01:41:16;;;;;;;33.30;15.43;;;7.80;99.90;;;;;;5063321;28;20036;-86
2021/10/24 01:43:42;;;;;;;28.88;16.48;;;7.80;99.90;;;;;;5049397;28;20048;-84
2021/10/24 01:46:07;;;;;;;30.55;16.38;;;7.70;99.90;;;;;;5051235;28;20071;-85
2021/10/24 01:48:33;;;;;;;28.98;16.10;;;7.70;99.90;;;;;;5061368;28;20037;-84
2021/10/24 01:50:59;;;;;;;28.75;16.77;;;7.70;99.90;;;;;;5048224;28;20527;-85
2021/10/24 01:53:34;;;;;;;33.70;16.17;;;7.60;99.90;;;;;;5032985;28;20044;-85
2021/10/24 01:56:00;;;;;;;31.73;16.90;;;7.60;99.90;;;;;;5053444;28;21560;-85
2021/10/24 01:58:26;;;;;;;30.63;18.02;;;7.60;99.90;;;;;;5042237;28;20081;-85
2021/10/24 02:00:53;;;;;;;35.97;17.42;;;7.60;99.90;;;;;;5058693;28;20084;-85
2021/10/24 02:03:19;;;;;;;30.60;16.90;;;7.50;99.90;;;;;;5023996;28;20086;-85
2021/10/24 02:05:46;;;;;;;35.50;17.52;;;7.50;99.90;;;;;;5069055;28;20056;-85
2021/10/24 02:08:12;;;;;;;29.50;17.38;;;7.40;99.90;;;;;;5040472;28;20053;-84
2021/10/24 02:10:39;;;;;;;31.40;17.90;;;7.40;99.90;;;;;;5038704;28;20622;-84
2021/10/24 02:13:06;;;;;;;27.73;16.40;;;7.40;99.90;;;;;;5062163;28;20061;-86
2021/10/24 02:15:33;;;;;;;29.45;16.83;;;7.40;99.90;;;;;;5023727;28;20041;-85
2021/10/24 02:17:59;;;;;;;32.55;17.40;;;7.30;99.90;;;;;;5033661;28;20050;-84
2021/10/24 02:20:26;;;;;;;28.48;16.13;;;7.30;99.90;;;;;;5046800;28;20032;-85
2021/10/24 02:22:52;;;;;;;26.60;15.70;;;7.20;99.90;;;;;;5074449;28;20458;-85
2021/10/24 02:25:18;;;;;;;34.13;17.98;;;7.30;99.90;;;;;;5059691;28;20032;-84
2021/10/24 02:27:44;;;;;;;38.25;17.10;;;7.20;99.90;;;;;;5046054;28;20029;-85
2021/10/24 02:30:11;;;;;;;30.38;15.77;;;7.20;99.90;;;;;;5032889;28;20035;-84
2021/10/24 02:32:38;;;;;;;33.08;16.55;;;7.20;99.90;;;;;;5039859;28;20032;-84
2021/10/24 02:35:04;;;;;;;30.52;16.13;;;7.10;99.90;;;;;;5047019;28;20391;-84
2021/10/24 02:37:30;;;;;;;31.77;16.05;;;7.10;99.90;;;;;;5074002;28;20028;-84
2021/10/24 02:39:57;;;;;;;26.88;15.25;;;7.00;99.90;;;;;;5041735;28;20036;-85
2021/10/24 02:42:23;;;;;;;33.40;16.13;;;7.00;99.90;;;;;;5036687;28;20036;-84
2021/10/24 02:44:49;;;;;;;28.83;13.90;;;7.00;99.90;;;;;;5067487;28;20267;-85
2021/10/24 02:47:17;;;;;;;27.25;14.85;;;6.90;99.90;;;;;;5015873;28;20048;-84
2021/10/24 02:49:44;;;;;;;30.27;16.17;;;6.90;99.90;;;;;;5072637;28;20552;-83
2021/10/24 02:52:10;;;;;;;26.40;15.15;;;6.90;99.90;;;;;;5048924;28;20029;-83
2021/10/24 02:54:35;;;;;;;32.83;15.10;;;6.80;99.90;;;;;;5066935;28;20059;-84
2021/10/24 02:57:02;;;;;;;28.40;14.63;;;6.80;99.90;;;;;;5029823;28;20086;-84
2021/10/24 02:59:28;;;;;;;28.50;15.70;;;6.70;99.90;;;;;;5042860;28;20032;-84
2021/10/24 03:01:54;;;;;;;30.23;14.85;;;6.70;99.90;;;;;;5034361;28;20067;-85
2021/10/24 03:04:20;;;;;;;33.60;15.45;;;6.70;99.90;;;;;;5032369;28;20060;-82
2021/10/24 03:06:46;;;;;;;29.33;15.07;;;6.70;99.90;;;;;;5050644;28;20493;-84
2021/10/24 03:09:12;;;;;;;30.55;15.18;;;6.70;99.90;;;;;;5065830;28;20651;-84
2021/10/24 03:11:38;;;;;;;25.75;14.93;;;6.70;99.90;;;;;;5049685;28;20043;-84
2021/10/24 03:14:04;;;;;;;26.35;14.90;;;6.70;99.90;;;;;;5069734;28;20504;-84
2021/10/24 03:16:30;;;;;;;33.40;15.73;;;6.70;99.90;;;;;;5039542;28;20045;-85
2021/10/24 03:18:55;;;;;;;26.90;15.63;;;6.60;99.90;;;;;;5034229;28;20035;-86
2021/10/24 03:21:21;;;;;;;33.03;16.25;;;6.60;99.90;;;;;;5062669;28;20035;-85
2021/10/24 03:23:47;;;;;;;29.35;15.10;;;6.60;99.90;;;;;;5027513;28;20039;-84
2021/10/24 03:26:12;;;;;;;27.25;15.50;;;6.60;99.90;;;;;;5034031;28;20083;-83
2021/10/24 03:28:38;;;;;;;25.65;14.63;;;6.60;99.90;;;;;;5029597;28;20055;-84
2021/10/24 03:31:05;;;;;;;25.48;14.82;;;6.60;99.90;;;;;;5052297;28;20486;-84
2021/10/24 03:33:31;;;;;;;23.15;14.77;;;6.50;99.90;;;;;;5050373;28;20728;-85
2021/10/24 03:35:56;;;;;;;29.60;16.15;;;6.50;99.90;;;;;;5047591;28;20359;-85
2021/10/24 03:38:22;;;;;;;26.50;15.55;;;6.50;99.90;;;;;;5045865;28;20115;-85
2021/10/24 03:40:48;;;;;;;34.85;17.58;;;6.50;99.90;;;;;;5046311;28;20506;-84
2021/10/24 03:43:14;;;;;;;31.83;16.40;;;6.50;99.90;;;;;;5027456;28;20040;-83
2021/10/24 03:45:40;;;;;;;26.45;14.68;;;6.50;99.90;;;;;;5064717;28;20036;-85
2021/10/24 03:48:06;;;;;;;28.88;15.63;;;6.40;99.90;;;;;;5043305;28;20029;-85
2021/10/24 03:50:32;;;;;;;28.25;15.68;;;6.50;99.90;;;;;;5066884;28;20501;-83
2021/10/24 03:52:58;;;;;;;27.23;14.45;;;6.40;99.90;;;;;;5059253;28;20037;-85
2021/10/24 03:55:24;;;;;;;28.30;15.32;;;6.40;99.90;;;;;;5032828;28;20044;-85
2021/10/24 03:57:50;;;;;;;31.20;16.55;;;6.40;99.90;;;;;;5017338;28;20128;-84
2021/10/24 04:00:16;;;;;;;28.30;16.20;;;6.40;99.90;;;;;;5025519;28;20048;-83
2021/10/24 04:02:58;;;;;;;26.20;15.85;;;6.40;99.90;;;;;;5063903;28;20109;-84
2021/10/24 04:05:25;;;;;;;29.93;16.17;;;6.30;99.90;;;;;;5067531;28;20028;-84
2021/10/24 04:07:52;;;;;;;33.72;17.45;;;6.30;99.90;;;;;;5033137;28;20302;-85
2021/10/24 04:10:19;;;;;;;28.25;16.55;;;6.30;99.90;;;;;;5032682;28;20324;-85
2021/10/24 04:12:45;;;;;;;27.45;16.08;;;6.30;99.90;;;;;;5065360;28;20629;-84
2021/10/24 04:15:11;;;;;;;27.13;16.05;;;6.20;99.90;;;;;;5031395;28;20082;-83
2021/10/24 04:17:37;;;;;;;31.83;16.40;;;6.30;99.90;;;;;;5078712;28;20090;-86
2021/10/24 04:20:08;;;;;;;29.92;16.08;;;6.20;99.90;;;;;;5016322;28;20036;-86
2021/10/24 04:22:38;;;;;;;34.58;16.70;;;6.20;99.90;;;;;;5033359;28;20468;-84
2021/10/24 04:25:06;;;;;;;36.83;18.08;;;6.20;99.90;;;;;;5014771;28;20029;-85
2021/10/24 04:27:32;;;;;;;31.02;16.88;;;6.10;99.90;;;;;;5070429;28;20036;-85
2021/10/24 04:29:59;;;;;;;29.45;17.38;;;6.20;99.90;;;;;;5030202;28;20048;-84
2021/10/24 04:32:24;;;;;;;30.60;15.90;;;6.10;99.90;;;;;;5051007;28;20036;-85
2021/10/24 04:34:50;;;;;;;30.27;17.38;;;6.10;99.90;;;;;;5048547;28;20036;-84
2021/10/24 04:37:16;;;;;;;32.38;16.85;;;6.10;99.90;;;;;;5038056;28;20453;-84
2021/10/24 04:39:42;;;;;;;36.63;17.17;;;6.10;99.90;;;;;;5022765;28;20068;-85
2021/10/24 04:42:08;;;;;;;31.00;18.13;;;6.00;99.90;;;;;;5053000;28;20036;-84
2021/10/24 04:44:34;;;;;;;36.45;17.73;;;6.00;99.90;;;;;;5047992;28;20037;-85
2021/10/24 04:47:00;;;;;;;33.40;16.27;;;6.00;99.90;;;;;;5041924;28;21555;-83
2021/10/24 04:49:25;;;;;;;29.08;16.63;;;5.90;99.90;;;;;;5088470;28;20115;-83
2021/10/24 04:51:51;;;;;;;27.40;16.98;;;6.00;99.90;;;;;;5041746;28;20380;-86
2021/10/24 04:54:17;;;;;;;26.17;17.00;;;6.00;99.90;;;;;;5035796;28;20036;-86
2021/10/24 04:56:43;;;;;;;32.42;16.77;;;5.90;99.90;;;;;;5083411;28;20110;-85
2021/10/24 04:59:09;;;;;;;29.10;16.95;;;5.90;99.90;;;;;;5016267;28;20430;-84
2021/10/24 05:01:34;;;;;;;34.08;17.33;;;5.90;99.90;;;;;;5044663;28;20486;-83
2021/10/24 05:04:00;;;;;;;33.45;18.30;;;5.80;99.90;;;;;;5058693;28;20045;-84
2021/10/24 05:06:26;;;;;;;31.60;17.23;;;5.80;99.90;;;;;;5035436;28;20086;-85
2021/10/24 05:08:51;;;;;;;31.90;16.50;;;5.80;99.90;;;;;;5019038;28;20123;-85
2021/10/24 05:11:17;;;;;;;36.35;18.90;;;5.80;99.90;;;;;;5034554;28;20037;-84
2021/10/24 05:13:44;;;;;;;29.48;17.45;;;5.80;99.90;;;;;;5057776;28;20075;-84
2021/10/24 05:16:09;;;;;;;33.47;17.60;;;5.80;99.90;;;;;;5013983;28;20045;-84
2021/10/24 05:18:35;;;;;;;34.42;19.08;;;5.70;99.90;;;;;;5047545;28;20105;-85
2021/10/24 05:21:01;;;;;;;35.13;18.25;;;5.70;99.90;;;;;;5038951;28;20039;-84
2021/10/24 05:23:26;;;;;;;37.50;18.40;;;5.60;99.90;;;;;;5038830;28;20058;-85
2021/10/24 05:25:52;;;;;;;30.25;18.15;;;5.60;99.90;;;;;;5037452;28;20036;-83
2021/10/24 05:28:18;;;;;;;29.40;17.50;;;5.60;99.90;;;;;;5028169;28;20040;-85
2021/10/24 05:30:44;;;;;;;34.33;17.90;;;5.60;99.90;;;;;;5053803;28;20041;-85
2021/10/24 05:33:09;;;;;;;31.05;18.10;;;5.50;99.90;;;;;;5032797;28;20040;-84
2021/10/24 05:35:35;;;;;;;32.53;18.40;;;5.50;99.90;;;;;;5074688;28;20036;-83
2021/10/24 05:38:01;;;;;;;33.85;18.88;;;5.50;99.90;;;;;;5015790;28;20029;-84
2021/10/24 05:40:27;;;;;;;31.00;19.05;;;5.50;99.90;;;;;;5050824;28;20044;-85
2021/10/24 05:42:52;;;;;;;39.33;18.25;;;5.50;99.90;;;;;;5050095;28;20049;-84
2021/10/24 05:45:18;;;;;;;33.85;18.98;;;5.50;99.90;;;;;;5072120;28;20028;-84
2021/10/24 05:47:44;;;;;;;30.38;19.25;;;5.50;99.90;;;;;;5048285;28;20037;-86
2021/10/24 05:50:10;;;;;;;38.25;19.70;;;5.40;99.90;;;;;;5035450;28;22018;-85
2021/10/24 05:52:36;;;;;;;37.00;18.98;;;5.50;99.90;;;;;;5065659;28;20054;-85
2021/10/24 05:55:04;;;;;;;46.60;19.88;;;5.40;99.90;;;;;;5073131;28;20048;-83
2021/10/24 05:57:29;;;;;;;33.50;19.50;;;5.40;99.90;;;;;;5062994;28;20063;-85
2021/10/24 05:59:58;;;;;;;34.83;18.55;;;5.40;99.90;;;;;;5066244;28;20495;-83
2021/10/24 06:02:24;;;;;;;36.22;19.45;;;5.40;99.90;;;;;;5063473;28;20479;-85
2021/10/24 06:04:49;;;;;;;34.53;19.67;;;5.30;99.90;;;;;;5059667;28;20047;-84
2021/10/24 06:07:16;;;;;;;32.50;18.67;;;5.30;99.90;;;;;;5048459;28;20650;-86
2021/10/24 06:09:52;;;;;;;39.28;19.23;;;5.30;99.90;;;;;;5034704;28;20486;-84
2021/10/24 06:15:07;;;;;;;34.63;19.15;;;5.30;99.90;;;;;;5042886;28;20049;-84
2021/10/24 06:17:34;;;;;;;30.90;18.25;;;5.30;99.90;;;;;;5049730;28;20090;-85
2021/10/24 06:20:00;;;;;;;34.85;18.77;;;5.30;99.90;;;;;;5067462;28;20040;-85
2021/10/24 06:22:26;;;;;;;36.85;19.90;;;5.30;99.90;;;;;;5028983;28;20066;-86
2021/10/24 06:24:53;;;;;;;31.95;19.42;;;5.30;99.90;;;;;;5042728;28;20040;-85
2021/10/24 06:27:19;;;;;;;30.30;17.15;;;5.30;99.90;;;;;;5055802;28;20119;-84
2021/10/24 06:29:44;;;;;;;35.10;20.05;;;5.30;99.90;;;;;;5030200;28;20111;-86
2021/10/24 06:32:10;;;;;;;33.42;19.67;;;5.30;99.90;;;;;;5017651;28;20035;-87
2021/10/24 06:34:36;;;;;;;38.35;18.80;;;5.30;99.90;;;;;;5035130;28;20036;-85
2021/10/24 06:37:05;;;;;;;35.15;19.13;;;5.30;99.90;;;;;;5059894;28;20036;-85
2021/10/24 06:39:33;;;;;;;32.63;18.65;;;5.30;99.90;;;;;;5047339;28;20127;-85
2021/10/24 06:41:59;;;;;;;33.33;19.65;;;5.30;99.90;;;;;;5052528;28;20087;-86
2021/10/24 06:44:25;;;;;;;36.53;18.17;;;5.30;99.90;;;;;;5037326;28;20040;-85
2021/10/24 06:46:50;;;;;;;32.65;18.48;;;5.40;99.90;;;;;;5046963;28;20032;-85
2021/10/24 06:49:16;;;;;;;35.53;19.17;;;5.40;99.90;;;;;;5034830;28;20029;-85
2021/10/24 06:51:42;;;;;;;33.22;18.85;;;5.40;99.90;;;;;;5030957;28;20036;-85
2021/10/24 06:54:08;;;;;;;32.85;17.88;;;5.40;99.90;;;;;;5081579;28;20036;-85
2021/10/24 06:56:34;;;;;;;40.08;19.73;;;5.40;99.90;;;;;;5019386;28;20120;-84
2021/10/24 06:58:59;;;;;;;33.50;19.20;;;5.40;99.90;;;;;;5058804;28;20499;-85
2021/10/24 07:01:25;;;;;;;34.08;19.08;;;5.40;99.90;;;;;;5031304;28;20048;-87
2021/10/24 07:03:51;;;;;;;33.97;19.42;;;5.40;99.90;;;;;;5064260;28;20064;-85
2021/10/24 07:06:17;;;;;;;35.83;17.65;;;5.40;99.90;;;;;;5010938;28;20037;-85
2021/10/24 07:08:43;;;;;;;38.15;18.67;;;5.40;99.90;;;;;;5070832;28;20139;-84
2021/10/24 07:11:08;;;;;;;34.47;18.42;;;5.40;99.90;;;;;;5017758;28;20332;-85
2021/10/24 07:13:34;;;;;;;34.30;18.85;;;5.40;99.90;;;;;;5047818;28;20407;-86
2021/10/24 07:16:00;;;;;;;29.40;16.88;;;5.50;99.90;;;;;;5065122;28;20131;-86
2021/10/24 07:18:27;;;;;;;34.63;19.17;;;5.50;99.90;;;;;;5050519;28;20480;-87
2021/10/24 07:20:53;;;;;;;29.50;18.25;;;5.50;99.90;;;;;;5036404;28;20387;-86
2021/10/24 07:23:18;;;;;;;34.28;18.38;;;5.50;99.90;;;;;;5084576;28;20036;-86
2021/10/24 07:25:44;;;;;;;36.05;19.20;;;5.60;99.90;;;;;;5033685;28;20109;-85
2021/10/24 07:28:10;;;;;;;38.00;18.20;;;5.60;99.90;;;;;;5035370;28;20028;-87
2021/10/24 07:30:36;;;;;;;33.35;18.45;;;5.60;99.90;;;;;;5037216;28;20116;-86
2021/10/24 07:33:02;;;;;;;30.80;18.65;;;5.60;99.90;;;;;;5031368;28;20044;-85
2021/10/24 07:35:28;;;;;;;30.83;16.55;;;5.70;99.90;;;;;;5036086;28;20130;-84
2021/10/24 07:37:54;;;;;;;30.30;18.38;;;5.70;99.90;;;;;;5032043;28;20043;-86
2021/10/24 07:40:21;;;;;;;34.33;18.20;;;5.70;99.90;;;;;;5036207;28;20036;-86
2021/10/24 07:42:47;;;;;;;32.22;17.15;;;5.80;99.90;;;;;;5014524;28;20044;-87
2021/10/24 07:45:13;;;;;;;32.40;17.00;;;5.80;99.90;;;;;;5057514;28;20037;-86
2021/10/24 07:47:40;;;;;;;34.35;17.38;;;5.90;99.90;;;;;;5013493;28;20452;-88
2021/10/24 07:50:09;;;;;;;29.92;18.05;;;5.90;99.90;;;;;;5033252;28;20534;-85
2021/10/24 07:52:36;;;;;;;28.17;17.20;;;5.90;99.90;;;;;;5054573;28;20112;-85
2021/10/24 07:55:03;;;;;;;30.45;18.20;;;6.00;99.90;;;;;;5026754;28;20075;-87
2021/10/24 07:57:29;;;;;;;31.77;17.10;;;6.00;99.90;;;;;;5043226;28;20600;-87
2021/10/24 07:59:55;;;;;;;31.60;16.58;;;6.10;99.90;;;;;;5063068;28;20127;-85
2021/10/24 08:02:20;;;;;;;28.52;15.52;;;6.10;99.90;;;;;;5044226;28;20054;-85
2021/10/24 08:04:48;;;;;;;25.65;15.52;;;6.10;99.90;;;;;;5048293;28;20064;-87
2021/10/24 08:07:15;;;;;;;27.73;16.98;;;6.20;99.90;;;;;;5029670;28;20116;-86
2021/10/24 08:09:41;;;;;;;25.38;16.48;;;6.30;99.90;;;;;;5066502;28;20044;-85
2021/10/24 08:12:07;;;;;;;25.77;16.67;;;6.40;99.90;;;;;;5050837;28;20036;-85
2021/10/24 08:14:33;;;;;;;33.13;17.85;;;6.40;99.90;;;;;;5038818;28;20041;-85
2021/10/24 08:17:00;;;;;;;24.30;15.60;;;6.40;99.90;;;;;;5061099;28;20047;-85
2021/10/24 08:19:28;;;;;;;26.05;15.85;;;6.50;99.90;;;;;;5026684;28;20201;-86
2021/10/24 08:21:54;;;;;;;28.45;16.70;;;6.50;99.90;;;;;;5028688;28;20048;-85
2021/10/24 08:24:21;;;;;;;27.00;14.30;;;6.60;99.90;;;;;;5049968;28;20047;-86
2021/10/24 08:26:48;;;;;;;23.35;14.70;;;6.60;99.90;;;;;;5065357;28;20032;-85
2021/10/24 08:29:14;;;;;;;25.60;15.90;;;6.70;99.90;;;;;;5056425;28;20075;-85
2021/10/24 08:31:48;;;;;;;26.42;15.68;;;6.70;99.90;;;;;;5036404;28;20068;-85
2021/10/24 08:34:13;;;;;;;25.90;14.95;;;6.80;99.90;;;;;;5018026;28;20040;-85
2021/10/24 08:36:39;;;;;;;21.88;14.32;;;6.90;99.90;;;;;;5044543;28;20537;-85
2021/10/24 08:39:05;;;;;;;28.65;15.18;;;6.90;99.90;;;;;;5033258;28;20406;-85
2021/10/24 08:41:31;;;;;;;22.83;14.68;;;7.00;99.90;;;;;;5032524;28;20491;-85
2021/10/24 08:44:00;;;;;;;23.83;14.57;;;7.00;99.90;;;;;;5051051;28;20059;-86
2021/10/24 08:46:26;;;;;;;23.90;14.23;;;7.10;99.90;;;;;;5051528;28;20031;-84
2021/10/24 08:48:53;;;;;;;23.33;14.27;;;7.10;99.90;;;;;;5051490;28;20386;-86
2021/10/24 08:51:19;;;;;;;23.67;14.13;;;7.20;99.90;;;;;;5047263;28;20029;-85
2021/10/24 08:53:47;;;;;;;24.40;15.85;;;7.30;99.90;;;;;;5072416;28;20067;-86
2021/10/24 08:56:24;;;;;;;23.63;14.48;;;7.30;99.90;;;;;;5053902;28;20592;-85
2021/10/24 08:58:51;;;;;;;23.77;14.68;;;7.30;99.90;;;;;;5041955;28;20423;-85
2021/10/24 09:01:18;;;;;;;22.73;13.55;;;7.40;99.90;;;;;;5054550;28;20036;-85
2021/10/24 09:04:02;;;;;;;24.42;14.23;;;7.50;99.90;;;;;;5043978;28;20470;-84
2021/10/24 09:06:48;;;;;;;22.38;13.88;;;7.60;99.90;;;;;;5061103;28;20041;-84
2021/10/24 09:09:16;;;;;;;19.52;13.25;;;7.60;99.90;;;;;;5046406;28;20258;-85
2021/10/24 09:11:50;;;;;;;25.92;14.50;;;7.70;99.90;;;;;;5049382;28;20099;-85
2021/10/24 09:14:35;;;;;;;28.58;13.98;;;7.70;99.90;;;;;;5048634;28;20044;-85
2021/10/24 09:17:00;;;;;;;20.90;12.63;;;7.80;99.90;;;;;;5021624;28;20127;-86
2021/10/24 09:19:38;;;;;;;24.55;12.25;;;7.90;99.90;;;;;;5030669;28;20135;-85
2021/10/24 09:22:23;;;;;;;20.08;12.88;;;8.00;99.90;;;;;;5068940;28;20103;-86
2021/10/24 09:25:02;;;;;;;21.88;12.68;;;8.10;99.90;;;;;;5079256;28;20270;-84
2021/10/24 09:27:44;;;;;;;18.17;12.23;;;8.10;99.90;;;;;;5040748;28;20060;-85
2021/10/24 09:30:14;;;;;;;24.45;13.45;;;8.20;99.90;;;;;;5049037;28;20028;-85
2021/10/24 09:32:56;;;;;;;25.92;13.70;;;8.30;99.90;;;;;;5077906;28;20028;-85
2021/10/24 09:35:24;;;;;;;22.60;12.70;;;8.40;99.90;;;;;;5045450;28;20063;-86
2021/10/24 09:37:51;;;;;;;24.45;12.40;;;8.50;99.90;;;;;;5053775;28;20037;-85
2021/10/24 09:40:25;;;;;;;17.05;11.57;;;8.50;99.90;;;;;;5055409;28;20040;-85
2021/10/24 09:43:13;;;;;;;19.73;12.15;;;8.70;99.90;;;;;;5078856;28;20064;-87
2021/10/24 09:45:41;;;;;;;16.65;10.50;;;8.70;99.90;;;;;;5053259;28;20036;-85
2021/10/24 09:48:14;;;;;;;21.92;11.63;;;8.80;99.90;;;;;;5054723;28;20033;-85
2021/10/24 09:50:51;;;;;;;20.25;11.32;;;8.90;99.90;;;;;;5045713;28;20102;-87
2021/10/24 09:53:25;;;;;;;17.55;11.48;;;8.90;99.90;;;;;;5045386;28;20036;-86
2021/10/24 09:55:54;;;;;;;19.38;11.82;;;9.10;99.90;;;;;;5085413;28;20044;-85
2021/10/24 09:58:28;;;;;;;20.55;11.85;;;9.20;99.90;;;;;;5057886;28;20072;-86
2021/10/24 10:00:55;;;;;;;18.15;10.90;;;9.20;99.90;;;;;;5057786;28;20040;-86
2021/10/24 10:03:22;;;;;;;19.08;11.57;;;9.30;99.90;;;;;;5051893;28;20044;-85
2021/10/24 10:05:47;;;;;;;21.75;11.73;;;9.40;99.90;;;;;;5034142;28;20475;-85
2021/10/24 10:08:17;;;;;;;23.52;11.35;;;9.50;99.90;;;;;;5015734;28;20041;-85
2021/10/24 10:10:48;;;;;;;19.48;10.52;;;9.60;99.90;;;;;;5062967;28;20078;-86
2021/10/24 10:13:18;;;;;;;20.67;10.70;;;9.70;99.90;;;;;;5052139;28;20085;-85
2021/10/24 10:15:48;;;;;;;15.77;9.43;;;9.70;99.90;;;;;;5049900;28;20293;-86
2021/10/24 10:18:14;;;;;;;16.63;9.73;;;9.80;99.90;;;;;;5051978;28;20043;-87
2021/10/24 10:20:50;;;;;;;17.98;9.45;;;9.80;99.90;;;;;;5036671;28;20571;-86
2021/10/24 10:23:37;;;;;;;16.65;10.32;;;9.90;99.90;;;;;;5056347;28;20623;-86
2021/10/24 10:26:56;;;;;;;17.10;8.93;;;9.90;99.90;;;;;;5055438;28;20071;-86
2021/10/24 10:29:49;;;;;;;11.07;7.70;;;10.00;99.90;;;;;;5030605;28;20072;-86
2021/10/24 10:32:17;;;;;;;15.90;9.05;;;10.10;99.90;;;;;;5044095;28;22115;-84
2021/10/24 10:34:58;;;;;;;16.27;8.52;;;10.10;99.90;;;;;;5042428;28;20104;-85
2021/10/24 10:37:52;;;;;;;18.45;9.05;;;10.20;99.90;;;;;;5053369;28;20033;-85
2021/10/24 10:40:25;;;;;;;19.83;9.10;;;10.30;99.90;;;;;;5061561;28;20443;-85
2021/10/24 10:42:52;;;;;;;18.58;9.40;;;10.40;99.90;;;;;;5062604;28;20048;-84
2021/10/24 10:45:19;;;;;;;20.15;12.63;;;10.50;99.90;;;;;;5055767;28;20138;-87
2021/10/24 10:47:54;;;;;;;11.90;8.05;;;10.50;99.90;;;;;;5063798;28;20272;-84
2021/10/24 10:50:29;;;;;;;18.95;7.82;;;10.50;99.90;;;;;;5055574;28;20040;-85
2021/10/24 10:52:56;;;;;;;14.38;8.30;;;10.60;99.90;;;;;;5051278;28;20032;-86
2021/10/24 10:55:22;;;;;;;15.32;8.25;;;10.60;99.90;;;;;;5070380;28;20032;-87
2021/10/24 10:57:49;;;;;;;12.73;7.43;;;10.70;99.90;;;;;;5033020;28;20033;-85
2021/10/24 11:00:37;;;;;;;12.95;7.82;;;10.70;99.90;;;;;;5051931;28;20406;-86
2021/10/24 11:03:04;;;;;;;10.85;6.57;;;10.80;99.90;;;;;;5048966;28;20506;-85
2021/10/24 11:05:39;;;;;;;14.50;6.78;;;10.90;99.80;;;;;;5067017;28;20135;-85
2021/10/24 11:08:25;;;;;;;15.63;6.25;;;11.00;99.50;;;;;;5047680;28;20074;-85
2021/10/24 11:10:51;;;;;;;12.43;5.63;;;11.10;99.20;;;;;;5048440;28;20482;-87
2021/10/24 11:13:29;;;;;;;13.18;6.43;;;11.20;98.20;;;;;;5032157;28;20123;-86
2021/10/24 11:15:55;;;;;;;13.77;6.38;;;11.30;97.70;;;;;;5074357;28;20086;-86
2021/10/24 11:18:36;;;;;;;13.77;6.10;;;11.30;97.90;;;;;;5028672;28;20033;-87
2021/10/24 11:21:02;;;;;;;13.20;5.68;;;11.40;97.90;;;;;;5029897;28;20051;-87
2021/10/24 11:23:31;;;;;;;14.43;5.35;;;11.50;96.50;;;;;;5035204;28;20044;-86
2021/10/24 11:25:59;;;;;;;12.43;5.50;;;11.60;95.90;;;;;;5032828;28;20135;-85
2021/10/24 11:28:28;;;;;;;12.80;5.43;;;11.60;96.00;;;;;;5030509;28;20560;-87
2021/10/24 11:31:01;;;;;;;10.82;5.68;;;11.70;96.20;;;;;;5047043;28;20044;-82
2021/10/24 11:33:28;;;;;;;13.77;5.80;;;11.80;95.90;;;;;;5051817;28;20469;-85
2021/10/24 11:35:54;;;;;;;10.63;5.45;;;11.80;95.60;;;;;;5048298;28;20040;-84
2021/10/24 11:38:24;;;;;;;11.50;4.63;;;11.90;95.60;;;;;;5015497;28;20403;-85
2021/10/24 11:40:50;;;;;;;11.52;5.25;;;12.00;94.80;;;;;;5047533;28;20048;-84
2021/10/24 11:43:19;;;;;;;8.82;4.32;;;12.00;94.10;;;;;;5047126;28;20045;-84
2021/10/24 11:45:47;;;;;;;11.55;4.45;;;12.10;93.30;;;;;;5033895;28;20063;-86
2021/10/24 11:48:15;;;;;;;9.13;4.32;;;12.10;92.90;;;;;;5032763;28;20453;-86
2021/10/24 11:51:02;;;;;;;11.52;4.20;;;12.00;93.30;;;;;;5068905;28;20047;-86
2021/10/24 11:53:45;;;;;;;16.45;4.97;;;12.10;92.50;;;;;;5045074;28;20040;-85
2021/10/24 11:56:20;;;;;;;7.15;4.47;;;12.10;92.00;;;;;;5063935;28;20502;-87
2021/10/24 12:01:25;;;;;;;11.93;4.57;;;12.20;89.40;;;;;;5060412;28;20138;-85
2021/10/24 12:03:59;;;;;;;12.88;5.68;;;12.20;89.00;;;;;;5051433;28;20047;-83
2021/10/24 12:06:57;;;;;;;10.13;5.47;;;12.20;89.00;;;;;;5052734;28;20484;-85
2021/10/24 12:09:37;;;;;;;10.57;5.32;;;12.20;90.20;;;;;;5049121;28;20048;-85
2021/10/24 12:12:10;;;;;;;11.20;6.60;;;12.20;88.20;;;;;;5068264;28;20032;-85
2021/10/24 12:14:58;;;;;;;16.05;5.60;;;12.20;89.90;;;;;;5051910;28;20486;-86
2021/10/24 12:17:31;;;;;;;10.77;5.50;;;12.20;91.00;;;;;;5046265;28;20048;-87
2021/10/24 12:20:09;;;;;;;14.57;5.68;;;12.20;91.10;;;;;;5036503;28;20059;-85
2021/10/24 12:22:40;;;;;;;12.27;5.93;;;12.30;91.00;;;;;;5056137;28;20064;-84
2021/10/24 12:25:07;;;;;;;13.65;6.00;;;12.20;89.10;;;;;;5064203;28;20047;-85
2021/10/24 12:27:34;;;;;;;16.92;6.75;;;12.30;89.20;;;;;;5053418;28;20037;-87
2021/10/24 12:30:32;;;;;;;11.25;6.30;;;12.30;90.80;;;;;;5024291;28;20494;-87
2021/10/24 12:33:05;;;;;;;11.85;6.28;;;12.30;91.80;;;;;;5051093;28;20048;-85
2021/10/24 12:35:46;;;;;;;14.85;6.05;;;12.40;91.60;;;;;;5035044;28;20063;-86
2021/10/24 12:38:13;;;;;;;12.50;6.07;;;12.30;92.00;;;;;;5057135;28;20032;-86
2021/10/24 12:40:39;;;;;;;12.95;6.28;;;12.40;91.90;;;;;;5055815;28;20083;-88
2021/10/24 12:43:11;;;;;;;7.68;5.68;;;12.40;92.30;;;;;;5046795;28;20033;-85
2021/10/24 12:45:41;;;;;;;;;;;12.40;92.20;;;;;;5037660;28;20051;-85
2021/10/24 12:48:07;;;;;;;14.77;6.63;;;12.50;92.90;;;;;;5068534;28;19916;-88
2021/10/24 12:50:35;;;;;;;12.27;6.07;;;12.50;90.80;;;;;;5027938;28;20560;-86